sensor_id;sensor_type;location;lat;lon;timestamp;P1;durP1;ratioP1;P2;durP2;ratioP2
8139;SDS011;4111;50.972;7.072;2024-02-04T00:01:59;7.73;;;6.70;;
8139;SDS011;4111;50.972;7.072;2024-02-04T00:04:26;4.80;;;4.40;;
8139;SDS011;4111;50.972;7.072;2024-02-04T00:06:53;4.00;;;3.43;;
8139;SDS011;4111;50.972;7.072;2024-02-04T00:09:20;3.07;;;2.87;;
8139;SDS011;4111;50.972;7.072;2024-02-04T00:11:46;2.20;;;2.00;;
8139;SDS011;4111;50.972;7.072;2024-02-04T00:14:13;1.63;;;1.50;;
8139;SDS011;4111;50.972;7.072;2024-02-04T00:16:39;2.03;;;1.50;;
8139;SDS011;4111;50.972;7.072;2024-02-04T00:19:06;1.17;;;1.17;;
8139;SDS011;4111;50.972;7.072;2024-02-04T00:21:35;1.10;;;1.10;;
8139;SDS011;4111;50.972;7.072;2024-02-04T00:24:01;1.00;;;1.00;;
8139;SDS011;4111;50.972;7.072;2024-02-04T00:26:28;1.60;;;1.43;;
8139;SDS011;4111;50.972;7.072;2024-02-04T00:28:54;1.20;;;1.20;;
8139;SDS011;4111;50.972;7.072;2024-02-04T00:31:21;1.47;;;1.37;;
8139;SDS011;4111;50.972;7.072;2024-02-04T00:33:48;1.53;;;1.43;;
8139;SDS011;4111;50.972;7.072;2024-02-04T00:36:14;1.27;;;1.17;;
8139;SDS011;4111;50.972;7.072;2024-02-04T00:38:41;1.50;;;1.40;;
8139;SDS011;4111;50.972;7.072;2024-02-04T00:41:07;2.17;;;1.97;;
8139;SDS011;4111;50.972;7.072;2024-02-04T00:43:34;2.50;;;2.40;;
8139;SDS011;4111;50.972;7.072;2024-02-04T00:46:01;4.20;;;3.17;;
8139;SDS011;4111;50.972;7.072;2024-02-04T00:48:27;3.23;;;3.03;;
8139;SDS011;4111;50.972;7.072;2024-02-04T00:50:54;4.47;;;4.07;;
8139;SDS011;4111;50.972;7.072;2024-02-04T00:53:21;5.30;;;4.80;;
8139;SDS011;4111;50.972;7.072;2024-02-04T00:55:47;5.50;;;5.00;;
8139;SDS011;4111;50.972;7.072;2024-02-04T00:58:14;6.30;;;5.70;;
8139;SDS011;4111;50.972;7.072;2024-02-04T01:00:40;6.43;;;5.77;;
8139;SDS011;4111;50.972;7.072;2024-02-04T01:03:08;6.73;;;6.20;;
8139;SDS011;4111;50.972;7.072;2024-02-04T01:05:35;6.03;;;5.47;;
8139;SDS011;4111;50.972;7.072;2024-02-04T01:08:01;6.07;;;5.57;;
8139;SDS011;4111;50.972;7.072;2024-02-04T01:10:28;5.60;;;5.20;;
8139;SDS011;4111;50.972;7.072;2024-02-04T01:12:54;5.53;;;5.13;;
8139;SDS011;4111;50.972;7.072;2024-02-04T01:15:21;4.97;;;4.67;;
8139;SDS011;4111;50.972;7.072;2024-02-04T01:17:48;5.03;;;4.63;;
8139;SDS011;4111;50.972;7.072;2024-02-04T01:20:14;4.47;;;4.17;;
8139;SDS011;4111;50.972;7.072;2024-02-04T01:22:41;3.80;;;3.60;;
8139;SDS011;4111;50.972;7.072;2024-02-04T01:25:08;3.80;;;3.50;;
8139;SDS011;4111;50.972;7.072;2024-02-04T01:27:34;3.67;;;3.30;;
8139;SDS011;4111;50.972;7.072;2024-02-04T01:30:01;3.53;;;3.23;;
8139;SDS011;4111;50.972;7.072;2024-02-04T01:32:28;3.80;;;3.50;;
8139;SDS011;4111;50.972;7.072;2024-02-04T01:34:54;3.33;;;3.03;;
8139;SDS011;4111;50.972;7.072;2024-02-04T01:37:21;2.97;;;2.77;;
8139;SDS011;4111;50.972;7.072;2024-02-04T01:39:48;3.30;;;2.73;;
8139;SDS011;4111;50.972;7.072;2024-02-04T01:42:14;3.70;;;2.90;;
8139;SDS011;4111;50.972;7.072;2024-02-04T01:44:41;3.10;;;2.87;;
8139;SDS011;4111;50.972;7.072;2024-02-04T01:47:08;2.47;;;2.37;;
8139;SDS011;4111;50.972;7.072;2024-02-04T01:49:35;3.00;;;2.80;;
8139;SDS011;4111;50.972;7.072;2024-02-04T01:52:02;3.00;;;2.80;;
8139;SDS011;4111;50.972;7.072;2024-02-04T01:54:31;2.73;;;2.50;;
8139;SDS011;4111;50.972;7.072;2024-02-04T01:56:59;4.10;;;2.70;;
8139;SDS011;4111;50.972;7.072;2024-02-04T01:59:29;2.60;;;2.40;;
8139;SDS011;4111;50.972;7.072;2024-02-04T02:01:58;2.73;;;2.53;;
8139;SDS011;4111;50.972;7.072;2024-02-04T02:04:26;2.83;;;2.60;;
8139;SDS011;4111;50.972;7.072;2024-02-04T02:06:56;2.80;;;2.60;;
8139;SDS011;4111;50.972;7.072;2024-02-04T02:09:22;2.80;;;2.60;;
8139;SDS011;4111;50.972;7.072;2024-02-04T02:12:11;2.63;;;2.50;;
8139;SDS011;4111;50.972;7.072;2024-02-04T02:14:44;2.80;;;2.60;;
8139;SDS011;4111;50.972;7.072;2024-02-04T02:17:16;2.60;;;2.40;;
8139;SDS011;4111;50.972;7.072;2024-02-04T02:20:04;2.80;;;2.60;;
8139;SDS011;4111;50.972;7.072;2024-02-04T02:22:49;2.83;;;2.40;;
8139;SDS011;4111;50.972;7.072;2024-02-04T02:25:26;2.50;;;2.40;;
8139;SDS011;4111;50.972;7.072;2024-02-04T02:27:53;2.80;;;2.60;;
8139;SDS011;4111;50.972;7.072;2024-02-04T02:30:20;2.87;;;2.60;;
8139;SDS011;4111;50.972;7.072;2024-02-04T02:32:47;2.30;;;2.20;;
8139;SDS011;4111;50.972;7.072;2024-02-04T02:35:15;2.93;;;2.73;;
8139;SDS011;4111;50.972;7.072;2024-02-04T02:37:43;2.87;;;2.67;;
8139;SDS011;4111;50.972;7.072;2024-02-04T02:40:29;4.67;;;2.60;;
8139;SDS011;4111;50.972;7.072;2024-02-04T02:43:01;2.97;;;2.77;;
8139;SDS011;4111;50.972;7.072;2024-02-04T02:45:29;3.37;;;3.07;;
8139;SDS011;4111;50.972;7.072;2024-02-04T02:47:57;3.90;;;3.07;;
8139;SDS011;4111;50.972;7.072;2024-02-04T02:50:24;3.10;;;2.90;;
8139;SDS011;4111;50.972;7.072;2024-02-04T02:52:50;3.20;;;2.90;;
8139;SDS011;4111;50.972;7.072;2024-02-04T02:55:17;3.30;;;3.00;;
8139;SDS011;4111;50.972;7.072;2024-02-04T02:57:43;3.50;;;3.00;;
8139;SDS011;4111;50.972;7.072;2024-02-04T03:00:11;3.40;;;3.20;;
8139;SDS011;4111;50.972;7.072;2024-02-04T03:02:38;3.37;;;2.97;;
8139;SDS011;4111;50.972;7.072;2024-02-04T03:05:05;3.10;;;2.90;;
8139;SDS011;4111;50.972;7.072;2024-02-04T03:07:31;3.10;;;2.90;;
8139;SDS011;4111;50.972;7.072;2024-02-04T03:09:58;3.30;;;3.10;;
8139;SDS011;4111;50.972;7.072;2024-02-04T03:12:24;3.47;;;3.20;;
8139;SDS011;4111;50.972;7.072;2024-02-04T03:14:51;3.60;;;3.40;;
8139;SDS011;4111;50.972;7.072;2024-02-04T03:17:17;3.33;;;3.13;;
8139;SDS011;4111;50.972;7.072;2024-02-04T03:19:48;3.27;;;2.97;;
8139;SDS011;4111;50.972;7.072;2024-02-04T03:22:17;4.07;;;3.10;;
8139;SDS011;4111;50.972;7.072;2024-02-04T03:24:44;3.37;;;3.17;;
8139;SDS011;4111;50.972;7.072;2024-02-04T03:27:11;4.20;;;3.27;;
8139;SDS011;4111;50.972;7.072;2024-02-04T03:29:37;3.33;;;3.13;;
8139;SDS011;4111;50.972;7.072;2024-02-04T03:32:03;4.87;;;3.60;;
8139;SDS011;4111;50.972;7.072;2024-02-04T03:34:30;4.37;;;3.97;;
8139;SDS011;4111;50.972;7.072;2024-02-04T03:36:57;3.87;;;3.57;;
8139;SDS011;4111;50.972;7.072;2024-02-04T03:39:23;3.87;;;3.57;;
8139;SDS011;4111;50.972;7.072;2024-02-04T03:41:50;3.93;;;3.73;;
8139;SDS011;4111;50.972;7.072;2024-02-04T03:44:16;3.73;;;3.43;;
8139;SDS011;4111;50.972;7.072;2024-02-04T03:46:43;3.90;;;3.53;;
8139;SDS011;4111;50.972;7.072;2024-02-04T03:49:09;4.40;;;3.77;;
8139;SDS011;4111;50.972;7.072;2024-02-04T03:51:36;3.73;;;3.40;;
8139;SDS011;4111;50.972;7.072;2024-02-04T03:54:03;6.67;;;4.00;;
8139;SDS011;4111;50.972;7.072;2024-02-04T03:56:29;4.10;;;3.33;;
8139;SDS011;4111;50.972;7.072;2024-02-04T03:58:56;3.90;;;3.67;;
8139;SDS011;4111;50.972;7.072;2024-02-04T04:01:22;4.10;;;3.70;;
8139;SDS011;4111;50.972;7.072;2024-02-04T04:03:49;4.20;;;3.70;;
8139;SDS011;4111;50.972;7.072;2024-02-04T04:06:16;4.00;;;3.70;;
8139;SDS011;4111;50.972;7.072;2024-02-04T04:08:43;4.13;;;3.83;;
8139;SDS011;4111;50.972;7.072;2024-02-04T04:11:09;4.60;;;4.30;;
8139;SDS011;4111;50.972;7.072;2024-02-04T04:13:37;5.40;;;4.73;;
8139;SDS011;4111;50.972;7.072;2024-02-04T04:16:04;5.20;;;4.53;;
8139;SDS011;4111;50.972;7.072;2024-02-04T04:18:31;4.63;;;4.23;;
8139;SDS011;4111;50.972;7.072;2024-02-04T04:20:58;5.17;;;4.70;;
8139;SDS011;4111;50.972;7.072;2024-02-04T04:23:24;5.80;;;4.73;;
8139;SDS011;4111;50.972;7.072;2024-02-04T04:25:50;4.23;;;3.93;;
8139;SDS011;4111;50.972;7.072;2024-02-04T04:28:17;4.60;;;4.20;;
8139;SDS011;4111;50.972;7.072;2024-02-04T04:30:43;4.83;;;4.37;;
8139;SDS011;4111;50.972;7.072;2024-02-04T04:33:10;5.10;;;4.07;;
8139;SDS011;4111;50.972;7.072;2024-02-04T04:35:38;4.00;;;3.70;;
8139;SDS011;4111;50.972;7.072;2024-02-04T04:38:05;3.57;;;3.37;;
8139;SDS011;4111;50.972;7.072;2024-02-04T04:40:31;4.00;;;3.70;;
8139;SDS011;4111;50.972;7.072;2024-02-04T04:42:58;5.57;;;3.50;;
8139;SDS011;4111;50.972;7.072;2024-02-04T04:45:25;3.90;;;3.60;;
8139;SDS011;4111;50.972;7.072;2024-02-04T04:47:51;4.20;;;3.90;;
8139;SDS011;4111;50.972;7.072;2024-02-04T04:50:18;4.10;;;3.77;;
8139;SDS011;4111;50.972;7.072;2024-02-04T04:52:44;4.47;;;4.07;;
8139;SDS011;4111;50.972;7.072;2024-02-04T04:55:11;4.20;;;3.90;;
8139;SDS011;4111;50.972;7.072;2024-02-04T04:57:37;4.70;;;4.33;;
8139;SDS011;4111;50.972;7.072;2024-02-04T05:00:04;3.83;;;3.53;;
8139;SDS011;4111;50.972;7.072;2024-02-04T05:02:33;3.90;;;3.60;;
8139;SDS011;4111;50.972;7.072;2024-02-04T05:04:59;3.70;;;3.43;;
8139;SDS011;4111;50.972;7.072;2024-02-04T05:07:26;4.17;;;3.87;;
8139;SDS011;4111;50.972;7.072;2024-02-04T05:09:53;4.13;;;3.77;;
8139;SDS011;4111;50.972;7.072;2024-02-04T05:12:19;4.00;;;3.70;;
8139;SDS011;4111;50.972;7.072;2024-02-04T05:14:46;4.27;;;3.87;;
8139;SDS011;4111;50.972;7.072;2024-02-04T05:17:12;4.47;;;4.03;;
8139;SDS011;4111;50.972;7.072;2024-02-04T05:19:40;4.07;;;3.77;;
8139;SDS011;4111;50.972;7.072;2024-02-04T05:22:08;4.30;;;3.90;;
8139;SDS011;4111;50.972;7.072;2024-02-04T05:24:36;4.47;;;4.07;;
8139;SDS011;4111;50.972;7.072;2024-02-04T05:27:02;6.63;;;4.07;;
8139;SDS011;4111;50.972;7.072;2024-02-04T05:29:29;4.73;;;4.10;;
8139;SDS011;4111;50.972;7.072;2024-02-04T05:31:57;4.90;;;4.50;;
8139;SDS011;4111;50.972;7.072;2024-02-04T05:34:23;4.87;;;4.37;;
8139;SDS011;4111;50.972;7.072;2024-02-04T05:36:50;15.20;;;4.50;;
8139;SDS011;4111;50.972;7.072;2024-02-04T05:39:16;4.93;;;4.43;;
8139;SDS011;4111;50.972;7.072;2024-02-04T05:41:43;4.73;;;4.33;;
8139;SDS011;4111;50.972;7.072;2024-02-04T05:44:10;5.07;;;4.57;;
8139;SDS011;4111;50.972;7.072;2024-02-04T05:46:36;5.40;;;4.90;;
8139;SDS011;4111;50.972;7.072;2024-02-04T05:49:03;5.20;;;4.70;;
8139;SDS011;4111;50.972;7.072;2024-02-04T05:51:31;5.30;;;4.80;;
8139;SDS011;4111;50.972;7.072;2024-02-04T05:53:59;4.67;;;4.27;;
8139;SDS011;4111;50.972;7.072;2024-02-04T05:56:25;6.20;;;4.67;;
8139;SDS011;4111;50.972;7.072;2024-02-04T05:58:52;5.10;;;4.70;;
8139;SDS011;4111;50.972;7.072;2024-02-04T06:01:18;4.93;;;4.60;;
8139;SDS011;4111;50.972;7.072;2024-02-04T06:03:45;7.07;;;4.87;;
8139;SDS011;4111;50.972;7.072;2024-02-04T06:06:15;7.00;;;4.70;;
8139;SDS011;4111;50.972;7.072;2024-02-04T06:08:43;5.00;;;4.60;;
8139;SDS011;4111;50.972;7.072;2024-02-04T06:11:10;5.97;;;4.50;;
8139;SDS011;4111;50.972;7.072;2024-02-04T06:13:41;4.80;;;4.40;;
8139;SDS011;4111;50.972;7.072;2024-02-04T06:16:10;4.77;;;4.40;;
8139;SDS011;4111;50.972;7.072;2024-02-04T06:18:39;5.30;;;4.80;;
8139;SDS011;4111;50.972;7.072;2024-02-04T06:21:06;4.43;;;4.13;;
8139;SDS011;4111;50.972;7.072;2024-02-04T06:23:33;4.43;;;4.13;;
8139;SDS011;4111;50.972;7.072;2024-02-04T06:26:00;5.40;;;4.90;;
8139;SDS011;4111;50.972;7.072;2024-02-04T06:28:27;5.07;;;4.67;;
8139;SDS011;4111;50.972;7.072;2024-02-04T06:30:54;4.93;;;4.60;;
8139;SDS011;4111;50.972;7.072;2024-02-04T06:33:21;4.93;;;4.63;;
8139;SDS011;4111;50.972;7.072;2024-02-04T06:35:50;4.87;;;4.37;;
8139;SDS011;4111;50.972;7.072;2024-02-04T06:38:17;4.57;;;4.27;;
8139;SDS011;4111;50.972;7.072;2024-02-04T06:40:43;4.03;;;3.73;;
8139;SDS011;4111;50.972;7.072;2024-02-04T06:43:10;4.20;;;3.90;;
8139;SDS011;4111;50.972;7.072;2024-02-04T06:45:36;4.50;;;4.20;;
8139;SDS011;4111;50.972;7.072;2024-02-04T06:48:03;5.43;;;4.33;;
8139;SDS011;4111;50.972;7.072;2024-02-04T06:50:30;4.43;;;4.03;;
8139;SDS011;4111;50.972;7.072;2024-02-04T06:52:57;6.20;;;4.10;;
8139;SDS011;4111;50.972;7.072;2024-02-04T06:55:23;4.77;;;4.37;;
8139;SDS011;4111;50.972;7.072;2024-02-04T06:57:50;4.43;;;4.03;;
8139;SDS011;4111;50.972;7.072;2024-02-04T07:00:16;3.97;;;3.67;;
8139;SDS011;4111;50.972;7.072;2024-02-04T07:02:43;4.13;;;3.83;;
8139;SDS011;4111;50.972;7.072;2024-02-04T07:05:09;3.70;;;3.13;;
8139;SDS011;4111;50.972;7.072;2024-02-04T07:07:37;5.30;;;3.10;;
8139;SDS011;4111;50.972;7.072;2024-02-04T07:10:04;2.80;;;2.60;;
8139;SDS011;4111;50.972;7.072;2024-02-04T07:12:31;2.53;;;2.33;;
8139;SDS011;4111;50.972;7.072;2024-02-04T07:14:58;2.40;;;2.10;;
8139;SDS011;4111;50.972;7.072;2024-02-04T07:17:25;2.60;;;2.40;;
8139;SDS011;4111;50.972;7.072;2024-02-04T07:19:51;5.77;;;1.90;;
8139;SDS011;4111;50.972;7.072;2024-02-04T07:22:18;1.80;;;1.70;;
8139;SDS011;4111;50.972;7.072;2024-02-04T07:24:45;1.90;;;1.80;;
8139;SDS011;4111;50.972;7.072;2024-02-04T07:27:11;2.57;;;2.37;;
8139;SDS011;4111;50.972;7.072;2024-02-04T07:29:37;2.10;;;2.00;;
8139;SDS011;4111;50.972;7.072;2024-02-04T07:32:04;2.87;;;2.20;;
8139;SDS011;4111;50.972;7.072;2024-02-04T07:34:31;2.30;;;2.20;;
8139;SDS011;4111;50.972;7.072;2024-02-04T07:36:57;2.20;;;2.10;;
8139;SDS011;4111;50.972;7.072;2024-02-04T07:39:24;2.13;;;2.03;;
8139;SDS011;4111;50.972;7.072;2024-02-04T07:41:50;2.00;;;1.90;;
8139;SDS011;4111;50.972;7.072;2024-02-04T07:44:17;1.97;;;1.87;;
8139;SDS011;4111;50.972;7.072;2024-02-04T07:46:44;2.00;;;1.90;;
8139;SDS011;4111;50.972;7.072;2024-02-04T07:49:10;1.50;;;1.40;;
8139;SDS011;4111;50.972;7.072;2024-02-04T07:51:36;1.40;;;1.40;;
8139;SDS011;4111;50.972;7.072;2024-02-04T07:54:04;1.40;;;1.40;;
8139;SDS011;4111;50.972;7.072;2024-02-04T07:56:30;1.60;;;1.50;;
8139;SDS011;4111;50.972;7.072;2024-02-04T07:58:57;3.50;;;1.43;;
8139;SDS011;4111;50.972;7.072;2024-02-04T08:01:24;1.80;;;1.70;;
8139;SDS011;4111;50.972;7.072;2024-02-04T08:03:50;1.70;;;1.60;;
8139;SDS011;4111;50.972;7.072;2024-02-04T08:06:17;1.47;;;1.37;;
8139;SDS011;4111;50.972;7.072;2024-02-04T08:08:44;1.50;;;1.40;;
8139;SDS011;4111;50.972;7.072;2024-02-04T08:11:19;1.57;;;1.50;;
8139;SDS011;4111;50.972;7.072;2024-02-04T08:13:46;1.33;;;1.30;;
8139;SDS011;4111;50.972;7.072;2024-02-04T08:16:13;1.53;;;1.43;;
8139;SDS011;4111;50.972;7.072;2024-02-04T08:18:39;1.67;;;1.57;;
8139;SDS011;4111;50.972;7.072;2024-02-04T08:21:06;1.73;;;1.37;;
8139;SDS011;4111;50.972;7.072;2024-02-04T08:23:33;1.37;;;1.37;;
8139;SDS011;4111;50.972;7.072;2024-02-04T08:26:00;1.60;;;1.50;;
8139;SDS011;4111;50.972;7.072;2024-02-04T08:28:26;1.30;;;1.30;;
8139;SDS011;4111;50.972;7.072;2024-02-04T08:30:53;2.43;;;2.33;;
8139;SDS011;4111;50.972;7.072;2024-02-04T08:33:19;1.60;;;1.50;;
8139;SDS011;4111;50.972;7.072;2024-02-04T08:35:46;1.53;;;1.43;;
8139;SDS011;4111;50.972;7.072;2024-02-04T08:38:12;2.07;;;1.60;;
8139;SDS011;4111;50.972;7.072;2024-02-04T08:40:39;1.63;;;1.53;;
8139;SDS011;4111;50.972;7.072;2024-02-04T08:43:05;1.83;;;1.73;;
8139;SDS011;4111;50.972;7.072;2024-02-04T08:45:32;2.10;;;1.50;;
8139;SDS011;4111;50.972;7.072;2024-02-04T08:47:58;2.70;;;1.80;;
8139;SDS011;4111;50.972;7.072;2024-02-04T08:50:25;2.50;;;1.60;;
8139;SDS011;4111;50.972;7.072;2024-02-04T08:52:51;1.70;;;1.60;;
8139;SDS011;4111;50.972;7.072;2024-02-04T08:55:18;1.67;;;1.57;;
8139;SDS011;4111;50.972;7.072;2024-02-04T08:57:45;2.10;;;2.00;;
8139;SDS011;4111;50.972;7.072;2024-02-04T09:00:14;1.73;;;1.63;;
8139;SDS011;4111;50.972;7.072;2024-02-04T09:02:41;2.10;;;2.00;;
8139;SDS011;4111;50.972;7.072;2024-02-04T09:05:08;1.60;;;1.50;;
8139;SDS011;4111;50.972;7.072;2024-02-04T09:07:35;1.70;;;1.60;;
8139;SDS011;4111;50.972;7.072;2024-02-04T09:10:01;2.33;;;2.07;;
8139;SDS011;4111;50.972;7.072;2024-02-04T09:12:28;3.13;;;1.70;;
8139;SDS011;4111;50.972;7.072;2024-02-04T09:14:54;1.60;;;1.50;;
8139;SDS011;4111;50.972;7.072;2024-02-04T09:17:21;1.70;;;1.60;;
8139;SDS011;4111;50.972;7.072;2024-02-04T09:19:47;1.50;;;1.40;;
8139;SDS011;4111;50.972;7.072;2024-02-04T09:22:15;1.50;;;1.40;;
8139;SDS011;4111;50.972;7.072;2024-02-04T09:24:41;1.20;;;1.20;;
8139;SDS011;4111;50.972;7.072;2024-02-04T09:27:08;1.83;;;1.47;;
8139;SDS011;4111;50.972;7.072;2024-02-04T09:29:35;1.30;;;1.20;;
8139;SDS011;4111;50.972;7.072;2024-02-04T09:32:01;2.83;;;1.10;;
8139;SDS011;4111;50.972;7.072;2024-02-04T09:34:28;1.30;;;1.20;;
8139;SDS011;4111;50.972;7.072;2024-02-04T09:36:55;2.27;;;1.20;;
8139;SDS011;4111;50.972;7.072;2024-02-04T09:39:21;2.23;;;1.13;;
8139;SDS011;4111;50.972;7.072;2024-02-04T09:41:48;1.13;;;1.13;;
8139;SDS011;4111;50.972;7.072;2024-02-04T09:44:15;0.90;;;0.90;;
8139;SDS011;4111;50.972;7.072;2024-02-04T09:46:44;1.10;;;1.10;;
8139;SDS011;4111;50.972;7.072;2024-02-04T09:49:11;1.10;;;1.03;;
8139;SDS011;4111;50.972;7.072;2024-02-04T09:51:40;1.20;;;1.20;;
8139;SDS011;4111;50.972;7.072;2024-02-04T09:54:08;1.57;;;1.13;;
8139;SDS011;4111;50.972;7.072;2024-02-04T09:56:37;1.23;;;1.20;;
8139;SDS011;4111;50.972;7.072;2024-02-04T09:59:04;2.87;;;1.10;;
8139;SDS011;4111;50.972;7.072;2024-02-04T10:01:31;1.30;;;1.20;;
8139;SDS011;4111;50.972;7.072;2024-02-04T10:03:58;1.20;;;1.20;;
8139;SDS011;4111;50.972;7.072;2024-02-04T10:06:25;2.53;;;1.23;;
8139;SDS011;4111;50.972;7.072;2024-02-04T10:08:52;3.17;;;1.30;;
8139;SDS011;4111;50.972;7.072;2024-02-04T10:11:19;1.23;;;1.13;;
8139;SDS011;4111;50.972;7.072;2024-02-04T10:13:46;1.20;;;1.10;;
8139;SDS011;4111;50.972;7.072;2024-02-04T10:16:14;1.00;;;1.00;;
8139;SDS011;4111;50.972;7.072;2024-02-04T10:18:42;1.13;;;1.13;;
8139;SDS011;4111;50.972;7.072;2024-02-04T10:23:43;1.47;;;1.33;;
8139;SDS011;4111;50.972;7.072;2024-02-04T10:26:10;1.50;;;1.40;;
8139;SDS011;4111;50.972;7.072;2024-02-04T10:28:38;2.20;;;1.43;;
8139;SDS011;4111;50.972;7.072;2024-02-04T10:31:05;1.17;;;1.07;;
8139;SDS011;4111;50.972;7.072;2024-02-04T10:33:32;1.97;;;1.50;;
8139;SDS011;4111;50.972;7.072;2024-02-04T10:35:58;1.40;;;1.20;;
8139;SDS011;4111;50.972;7.072;2024-02-04T10:38:25;3.70;;;1.80;;
8139;SDS011;4111;50.972;7.072;2024-02-04T10:40:53;1.90;;;1.70;;
8139;SDS011;4111;50.972;7.072;2024-02-04T10:43:21;1.60;;;1.50;;
8139;SDS011;4111;50.972;7.072;2024-02-04T10:45:48;2.50;;;2.03;;
8139;SDS011;4111;50.972;7.072;2024-02-04T10:48:29;1.83;;;1.70;;
8139;SDS011;4111;50.972;7.072;2024-02-04T10:51:15;2.10;;;2.00;;
8139;SDS011;4111;50.972;7.072;2024-02-04T10:53:42;1.70;;;1.60;;
8139;SDS011;4111;50.972;7.072;2024-02-04T10:56:18;1.97;;;1.80;;
8139;SDS011;4111;50.972;7.072;2024-02-04T10:58:48;1.70;;;1.60;;
8139;SDS011;4111;50.972;7.072;2024-02-04T11:01:15;2.80;;;2.10;;
8139;SDS011;4111;50.972;7.072;2024-02-04T11:03:42;2.50;;;1.90;;
8139;SDS011;4111;50.972;7.072;2024-02-04T11:06:11;3.73;;;1.70;;
8139;SDS011;4111;50.972;7.072;2024-02-04T11:08:39;1.60;;;1.50;;
8139;SDS011;4111;50.972;7.072;2024-02-04T11:11:06;1.50;;;1.40;;
8139;SDS011;4111;50.972;7.072;2024-02-04T11:13:32;1.60;;;1.50;;
8139;SDS011;4111;50.972;7.072;2024-02-04T11:16:04;1.43;;;1.40;;
8139;SDS011;4111;50.972;7.072;2024-02-04T11:21:49;1.50;;;1.27;;
8139;SDS011;4111;50.972;7.072;2024-02-04T11:25:47;2.00;;;1.37;;
8139;SDS011;4111;50.972;7.072;2024-02-04T11:27:56;1.30;;;1.00;;
8139;SDS011;4111;50.972;7.072;2024-02-04T11:30:23;1.27;;;1.03;;
8139;SDS011;4111;50.972;7.072;2024-02-04T11:32:50;1.00;;;0.90;;
8139;SDS011;4111;50.972;7.072;2024-02-04T11:35:17;2.37;;;1.00;;
8139;SDS011;4111;50.972;7.072;2024-02-04T11:37:46;1.90;;;1.10;;
8139;SDS011;4111;50.972;7.072;2024-02-04T11:40:14;0.83;;;0.83;;
8139;SDS011;4111;50.972;7.072;2024-02-04T11:42:43;1.73;;;0.80;;
8139;SDS011;4111;50.972;7.072;2024-02-04T11:45:11;1.13;;;1.10;;
8139;SDS011;4111;50.972;7.072;2024-02-04T11:47:39;0.90;;;0.90;;
8139;SDS011;4111;50.972;7.072;2024-02-04T11:50:06;1.00;;;0.90;;
8139;SDS011;4111;50.972;7.072;2024-02-04T11:52:36;1.13;;;1.10;;
8139;SDS011;4111;50.972;7.072;2024-02-04T11:55:03;1.50;;;1.33;;
8139;SDS011;4111;50.972;7.072;2024-02-04T11:57:33;1.90;;;1.70;;
8139;SDS011;4111;50.972;7.072;2024-02-04T12:00:00;1.20;;;1.20;;
8139;SDS011;4111;50.972;7.072;2024-02-04T12:02:31;1.93;;;1.47;;
8139;SDS011;4111;50.972;7.072;2024-02-04T12:04:58;1.50;;;1.40;;
8139;SDS011;4111;50.972;7.072;2024-02-04T12:07:26;1.53;;;1.43;;
8139;SDS011;4111;50.972;7.072;2024-02-04T12:09:53;1.70;;;1.60;;
8139;SDS011;4111;50.972;7.072;2024-02-04T12:12:19;3.07;;;1.70;;
8139;SDS011;4111;50.972;7.072;2024-02-04T12:14:46;1.53;;;1.50;;
8139;SDS011;4111;50.972;7.072;2024-02-04T12:17:15;2.83;;;1.33;;
8139;SDS011;4111;50.972;7.072;2024-02-04T12:19:41;2.93;;;1.97;;
8139;SDS011;4111;50.972;7.072;2024-02-04T12:22:10;2.47;;;1.60;;
8139;SDS011;4111;50.972;7.072;2024-02-04T12:24:38;1.53;;;1.43;;
8139;SDS011;4111;50.972;7.072;2024-02-04T12:27:05;2.73;;;1.90;;
8139;SDS011;4111;50.972;7.072;2024-02-04T12:29:32;3.07;;;1.70;;
8139;SDS011;4111;50.972;7.072;2024-02-04T12:31:59;1.67;;;1.57;;
8139;SDS011;4111;50.972;7.072;2024-02-04T12:34:30;2.37;;;1.70;;
8139;SDS011;4111;50.972;7.072;2024-02-04T12:36:58;3.57;;;1.53;;
8139;SDS011;4111;50.972;7.072;2024-02-04T12:39:26;1.63;;;1.30;;
8139;SDS011;4111;50.972;7.072;2024-02-04T12:41:53;2.30;;;1.37;;
8139;SDS011;4111;50.972;7.072;2024-02-04T12:44:20;1.17;;;1.17;;
8139;SDS011;4111;50.972;7.072;2024-02-04T12:46:51;1.20;;;1.10;;
8139;SDS011;4111;50.972;7.072;2024-02-04T12:49:21;3.13;;;1.40;;
8139;SDS011;4111;50.972;7.072;2024-02-04T12:51:49;2.87;;;1.10;;
8139;SDS011;4111;50.972;7.072;2024-02-04T12:54:18;1.43;;;1.10;;
8139;SDS011;4111;50.972;7.072;2024-02-04T12:56:52;1.20;;;1.10;;
8139;SDS011;4111;50.972;7.072;2024-02-04T12:59:29;1.47;;;1.17;;
8139;SDS011;4111;50.972;7.072;2024-02-04T13:02:01;1.20;;;1.10;;
8139;SDS011;4111;50.972;7.072;2024-02-04T13:04:38;1.93;;;1.83;;
8139;SDS011;4111;50.972;7.072;2024-02-04T13:07:06;1.27;;;1.27;;
8139;SDS011;4111;50.972;7.072;2024-02-04T13:09:33;1.20;;;1.20;;
8139;SDS011;4111;50.972;7.072;2024-02-04T13:12:03;1.70;;;1.43;;
8139;SDS011;4111;50.972;7.072;2024-02-04T13:14:31;1.57;;;1.47;;
8139;SDS011;4111;50.972;7.072;2024-02-04T13:16:58;2.53;;;2.00;;
8139;SDS011;4111;50.972;7.072;2024-02-04T13:19:24;1.70;;;1.60;;
8139;SDS011;4111;50.972;7.072;2024-02-04T13:21:51;1.63;;;1.50;;
8139;SDS011;4111;50.972;7.072;2024-02-04T13:24:18;1.60;;;1.50;;
8139;SDS011;4111;50.972;7.072;2024-02-04T13:26:44;1.63;;;1.53;;
8139;SDS011;4111;50.972;7.072;2024-02-04T13:29:10;1.60;;;1.50;;
8139;SDS011;4111;50.972;7.072;2024-02-04T13:31:37;1.90;;;1.80;;
8139;SDS011;4111;50.972;7.072;2024-02-04T13:34:04;1.90;;;1.80;;
8139;SDS011;4111;50.972;7.072;2024-02-04T13:36:31;2.27;;;1.63;;
8139;SDS011;4111;50.972;7.072;2024-02-04T13:38:57;2.20;;;2.00;;
8139;SDS011;4111;50.972;7.072;2024-02-04T13:41:24;2.97;;;1.83;;
8139;SDS011;4111;50.972;7.072;2024-02-04T13:43:51;2.07;;;1.90;;
8139;SDS011;4111;50.972;7.072;2024-02-04T13:46:17;1.60;;;1.50;;
8139;SDS011;4111;50.972;7.072;2024-02-04T13:48:44;1.50;;;1.40;;
8139;SDS011;4111;50.972;7.072;2024-02-04T13:51:10;2.13;;;1.70;;
8139;SDS011;4111;50.972;7.072;2024-02-04T13:53:37;1.30;;;1.30;;
8139;SDS011;4111;50.972;7.072;2024-02-04T13:56:03;1.93;;;1.83;;
8139;SDS011;4111;50.972;7.072;2024-02-04T13:58:30;1.73;;;1.60;;
8139;SDS011;4111;50.972;7.072;2024-02-04T14:00:57;2.10;;;1.93;;
8139;SDS011;4111;50.972;7.072;2024-02-04T14:03:25;1.60;;;1.50;;
8139;SDS011;4111;50.972;7.072;2024-02-04T14:05:51;1.80;;;1.70;;
8139;SDS011;4111;50.972;7.072;2024-02-04T14:08:18;2.10;;;2.00;;
8139;SDS011;4111;50.972;7.072;2024-02-04T14:10:45;1.70;;;1.60;;
8139;SDS011;4111;50.972;7.072;2024-02-04T14:13:12;1.40;;;1.30;;
8139;SDS011;4111;50.972;7.072;2024-02-04T14:15:39;1.40;;;1.30;;
8139;SDS011;4111;50.972;7.072;2024-02-04T14:18:06;2.47;;;1.30;;
8139;SDS011;4111;50.972;7.072;2024-02-04T14:20:32;1.33;;;1.23;;
8139;SDS011;4111;50.972;7.072;2024-02-04T14:22:59;2.67;;;2.47;;
8139;SDS011;4111;50.972;7.072;2024-02-04T14:25:25;1.30;;;1.20;;
8139;SDS011;4111;50.972;7.072;2024-02-04T14:27:56;1.80;;;1.57;;
8139;SDS011;4111;50.972;7.072;2024-02-04T14:30:22;1.60;;;1.50;;
8139;SDS011;4111;50.972;7.072;2024-02-04T14:32:49;1.17;;;1.17;;
8139;SDS011;4111;50.972;7.072;2024-02-04T14:35:16;1.50;;;1.37;;
8139;SDS011;4111;50.972;7.072;2024-02-04T14:37:42;3.27;;;1.27;;
8139;SDS011;4111;50.972;7.072;2024-02-04T14:40:09;1.37;;;1.27;;
8139;SDS011;4111;50.972;7.072;2024-02-04T14:42:37;1.17;;;1.17;;
8139;SDS011;4111;50.972;7.072;2024-02-04T14:45:08;0.93;;;0.93;;
8139;SDS011;4111;50.972;7.072;2024-02-04T14:47:35;1.40;;;1.30;;
8139;SDS011;4111;50.972;7.072;2024-02-04T14:50:01;1.53;;;1.43;;
8139;SDS011;4111;50.972;7.072;2024-02-04T14:52:29;2.07;;;1.70;;
8139;SDS011;4111;50.972;7.072;2024-02-04T14:54:55;1.53;;;1.27;;
8139;SDS011;4111;50.972;7.072;2024-02-04T14:57:22;2.37;;;1.47;;
8139;SDS011;4111;50.972;7.072;2024-02-04T14:59:48;1.60;;;1.40;;
8139;SDS011;4111;50.972;7.072;2024-02-04T15:02:15;1.60;;;1.40;;
8139;SDS011;4111;50.972;7.072;2024-02-04T15:04:42;1.53;;;1.43;;
8139;SDS011;4111;50.972;7.072;2024-02-04T15:07:08;2.47;;;1.47;;
8139;SDS011;4111;50.972;7.072;2024-02-04T15:09:35;2.43;;;1.83;;
8139;SDS011;4111;50.972;7.072;2024-02-04T15:12:02;1.33;;;1.13;;
8139;SDS011;4111;50.972;7.072;2024-02-04T15:14:29;1.20;;;1.20;;
8139;SDS011;4111;50.972;7.072;2024-02-04T15:16:56;1.30;;;1.20;;
8139;SDS011;4111;50.972;7.072;2024-02-04T15:19:24;1.17;;;1.07;;
8139;SDS011;4111;50.972;7.072;2024-02-04T15:21:53;1.20;;;1.10;;
8139;SDS011;4111;50.972;7.072;2024-02-04T15:24:21;1.33;;;1.20;;